sensor_id;sensor_type;location;lat;lon;timestamp;temperature;humidity
43009;DHT22;28634;45.454;11.106;2022-07-23T06:02:04;31.50;35.90
43009;DHT22;28634;45.454;11.106;2022-07-23T06:04:33;31.60;40.30
43009;DHT22;28634;45.454;11.106;2022-07-23T06:07:05;31.60;37.50
43009;DHT22;28634;45.454;11.106;2022-07-23T06:09:36;31.60;37.30
43009;DHT22;28634;45.454;11.106;2022-07-23T06:13:01;31.70;37.00
43009;DHT22;28634;45.454;11.106;2022-07-23T06:15:30;31.70;38.80
43009;DHT22;28634;45.454;11.106;2022-07-23T06:26:13;31.90;37.20
43009;DHT22;28634;45.454;11.106;2022-07-23T06:28:42;32.00;36.20
43009;DHT22;28634;45.454;11.106;2022-07-23T06:31:19;31.90;36.60
43009;DHT22;28634;45.454;11.106;2022-07-23T06:33:48;31.90;36.80
43009;DHT22;28634;45.454;11.106;2022-07-23T06:36:18;32.00;36.10
43009;DHT22;28634;45.454;11.106;2022-07-23T06:38:48;32.00;36.10
43009;DHT22;28634;45.454;11.106;2022-07-23T06:41:20;32.00;35.80
43009;DHT22;28634;45.454;11.106;2022-07-23T06:43:56;32.10;35.50
43009;DHT22;28634;45.454;11.106;2022-07-23T06:46:30;32.00;36.00
43009;DHT22;28634;45.454;11.106;2022-07-23T06:48:58;31.90;36.20
43009;DHT22;28634;45.454;11.106;2022-07-23T06:51:28;31.80;36.50
43009;DHT22;28634;45.454;11.106;2022-07-23T06:53:55;31.80;37.00
43009;DHT22;28634;45.454;11.106;2022-07-23T06:56:27;31.70;36.20
43009;DHT22;28634;45.454;11.106;2022-07-23T06:59:01;31.70;36.90
43009;DHT22;28634;45.454;11.106;2022-07-23T07:01:30;31.50;36.40
43009;DHT22;28634;45.454;11.106;2022-07-23T07:03:57;31.50;37.10
43009;DHT22;28634;45.454;11.106;2022-07-23T07:06:26;31.40;37.70
43009;DHT22;28634;45.454;11.106;2022-07-23T07:08:56;31.40;38.20
43009;DHT22;28634;45.454;11.106;2022-07-23T07:11:25;31.40;38.60
43009;DHT22;28634;45.454;11.106;2022-07-23T07:13:52;31.40;38.60
43009;DHT22;28634;45.454;11.106;2022-07-23T07:16:19;31.40;39.00
43009;DHT22;28634;45.454;11.106;2022-07-23T07:18:47;31.50;39.30
43009;DHT22;28634;45.454;11.106;2022-07-23T07:21:14;31.50;39.10
43009;DHT22;28634;45.454;11.106;2022-07-23T07:23:41;31.50;39.40
43009;DHT22;28634;45.454;11.106;2022-07-23T07:26:11;31.50;39.50
43009;DHT22;28634;45.454;11.106;2022-07-23T07:28:38;31.60;38.70
43009;DHT22;28634;45.454;11.106;2022-07-23T07:31:05;31.60;38.20
43009;DHT22;28634;45.454;11.106;2022-07-23T07:33:33;31.70;38.10
43009;DHT22;28634;45.454;11.106;2022-07-23T07:36:00;31.70;38.00
43009;DHT22;28634;45.454;11.106;2022-07-23T07:38:31;31.80;38.10
43009;DHT22;28634;45.454;11.106;2022-07-23T07:41:00;31.80;38.30
43009;DHT22;28634;45.454;11.106;2022-07-23T07:43:33;31.80;37.90
43009;DHT22;28634;45.454;11.106;2022-07-23T07:46:06;31.80;38.60
43009;DHT22;28634;45.454;11.106;2022-07-23T07:56:04;32.10;38.10
43009;DHT22;28634;45.454;11.106;2022-07-23T07:58:31;32.20;37.90
43009;DHT22;28634;45.454;11.106;2022-07-23T08:01:00;32.20;37.90
43009;DHT22;28634;45.454;11.106;2022-07-23T08:03:29;32.20;37.80
43009;DHT22;28634;45.454;11.106;2022-07-23T08:06:22;32.20;37.70
43009;DHT22;28634;45.454;11.106;2022-07-23T08:34:56;32.50;38.70
43009;DHT22;28634;45.454;11.106;2022-07-23T08:37:28;32.50;38.90
43009;DHT22;28634;45.454;11.106;2022-07-23T08:52:23;32.60;39.10
43009;DHT22;28634;45.454;11.106;2022-07-23T09:06:54;32.70;38.00
43009;DHT22;28634;45.454;11.106;2022-07-23T09:09:32;32.60;37.70
43009;DHT22;28634;45.454;11.106;2022-07-23T09:20:10;32.70;37.80
43009;DHT22;28634;45.454;11.106;2022-07-23T09:57:13;33.20;35.60
43009;DHT22;28634;45.454;11.106;2022-07-23T10:00:09;33.30;35.20
43009;DHT22;28634;45.454;11.106;2022-07-23T11:03:00;33.80;27.80
43009;DHT22;28634;45.454;11.106;2022-07-23T11:05:44;33.90;27.80
43009;DHT22;28634;45.454;11.106;2022-07-23T11:12:31;34.00;28.10
43009;DHT22;28634;45.454;11.106;2022-07-23T13:36:15;34.50;30.90
43009;DHT22;28634;45.454;11.106;2022-07-23T13:59:13;34.40;31.10
43009;DHT22;28634;45.454;11.106;2022-07-23T14:01:47;34.50;31.10
43009;DHT22;28634;45.454;11.106;2022-07-23T14:04:38;34.50;31.40
43009;DHT22;28634;45.454;11.106;2022-07-23T14:07:19;34.40;31.70
43009;DHT22;28634;45.454;11.106;2022-07-23T14:10:08;34.20;32.10
43009;DHT22;28634;45.454;11.106;2022-07-23T14:12:56;34.20;32.30
43009;DHT22;28634;45.454;11.106;2022-07-23T14:15:47;33.90;31.90
43009;DHT22;28634;45.454;11.106;2022-07-23T14:18:29;33.90;31.90
43009;DHT22;28634;45.454;11.106;2022-07-23T14:21:09;34.00;32.40
43009;DHT22;28634;45.454;11.106;2022-07-23T14:24:09;33.70;32.90
43009;DHT22;28634;45.454;11.106;2022-07-23T14:26:40;33.40;33.30
43009;DHT22;28634;45.454;11.106;2022-07-23T14:29:30;33.50;32.60
43009;DHT22;28634;45.454;11.106;2022-07-23T14:32:17;33.70;31.80
43009;DHT22;28634;45.454;11.106;2022-07-23T14:34:53;33.90;31.10
43009;DHT22;28634;45.454;11.106;2022-07-23T14:37:25;34.10;30.60
43009;DHT22;28634;45.454;11.106;2022-07-23T14:39:59;34.50;31.00
43009;DHT22;28634;45.454;11.106;2022-07-23T14:42:33;34.60;31.00
43009;DHT22;28634;45.454;11.106;2022-07-23T14:45:02;34.50;31.20
43009;DHT22;28634;45.454;11.106;2022-07-23T14:47:37;34.60;31.30
43009;DHT22;28634;45.454;11.106;2022-07-23T14:50:06;34.70;31.40
43009;DHT22;28634;45.454;11.106;2022-07-23T14:52:43;34.70;31.60
43009;DHT22;28634;45.454;11.106;2022-07-23T14:55:18;34.60;32.10
43009;DHT22;28634;45.454;11.106;2022-07-23T14:57:51;34.60;32.00
43009;DHT22;28634;45.454;11.106;2022-07-23T15:00:20;34.70;32.20
43009;DHT22;28634;45.454;11.106;2022-07-23T15:02:53;34.70;31.90
43009;DHT22;28634;45.454;11.106;2022-07-23T15:05:24;34.70;32.00
43009;DHT22;28634;45.454;11.106;2022-07-23T15:07:55;34.80;32.30
43009;DHT22;28634;45.454;11.106;2022-07-23T15:10:49;34.80;32.30
43009;DHT22;28634;45.454;11.106;2022-07-23T15:13:33;34.70;32.50
43009;DHT22;28634;45.454;11.106;2022-07-23T15:16:26;34.60;32.90
43009;DHT22;28634;45.454;11.106;2022-07-23T15:19:23;34.70;32.70
43009;DHT22;28634;45.454;11.106;2022-07-23T15:21:56;34.60;33.00
43009;DHT22;28634;45.454;11.106;2022-07-23T15:24:32;34.60;33.20
43009;DHT22;28634;45.454;11.106;2022-07-23T15:27:11;34.60;33.40
43009;DHT22;28634;45.454;11.106;2022-07-23T15:30:12;34.50;33.40
43009;DHT22;28634;45.454;11.106;2022-07-23T15:32:45;34.50;33.80
43009;DHT22;28634;45.454;11.106;2022-07-23T15:35:19;34.60;33.50
43009;DHT22;28634;45.454;11.106;2022-07-23T15:37:55;34.60;33.60
43009;DHT22;28634;45.454;11.106;2022-07-23T15:40:27;34.60;34.20
43009;DHT22;28634;45.454;11.106;2022-07-23T15:43:01;34.60;34.50
43009;DHT22;28634;45.454;11.106;2022-07-23T15:45:50;34.60;34.10
43009;DHT22;28634;45.454;11.106;2022-07-23T15:48:36;34.60;34.20
43009;DHT22;28634;45.454;11.106;2022-07-23T15:51:15;34.70;34.30
43009;DHT22;28634;45.454;11.106;2022-07-23T15:54:34;34.60;34.20
43009;DHT22;28634;45.454;11.106;2022-07-23T15:57:38;34.40;34.40
43009;DHT22;28634;45.454;11.106;2022-07-23T16:00:32;34.50;34.30
43009;DHT22;28634;45.454;11.106;2022-07-23T16:03:31;34.50;34.60
43009;DHT22;28634;45.454;11.106;2022-07-23T16:06:12;34.40;34.80
43009;DHT22;28634;45.454;11.106;2022-07-23T16:08:58;34.60;35.10
43009;DHT22;28634;45.454;11.106;2022-07-23T16:11:36;34.70;34.70
43009;DHT22;28634;45.454;11.106;2022-07-23T16:14:14;34.70;34.50
43009;DHT22;28634;45.454;11.106;2022-07-23T16:16:57;34.60;35.00
43009;DHT22;28634;45.454;11.106;2022-07-23T16:19:29;34.70;35.10
43009;DHT22;28634;45.454;11.106;2022-07-23T16:22:26;34.80;35.00
43009;DHT22;28634;45.454;11.106;2022-07-23T16:24:57;34.80;34.40
43009;DHT22;28634;45.454;11.106;2022-07-23T16:27:35;34.80;34.50
43009;DHT22;28634;45.454;11.106;2022-07-23T16:30:15;34.80;34.90
43009;DHT22;28634;45.454;11.106;2022-07-23T16:33:03;34.80;34.50
43009;DHT22;28634;45.454;11.106;2022-07-23T16:35:44;34.70;34.80
43009;DHT22;28634;45.454;11.106;2022-07-23T16:38:29;34.80;34.80
43009;DHT22;28634;45.454;11.106;2022-07-23T16:41:04;34.70;34.80
43009;DHT22;28634;45.454;11.106;2022-07-23T16:43:36;34.70;34.70
43009;DHT22;28634;45.454;11.106;2022-07-23T16:46:05;34.70;34.80
43009;DHT22;28634;45.454;11.106;2022-07-23T16:48:36;34.60;35.30
43009;DHT22;28634;45.454;11.106;2022-07-23T16:51:24;34.60;35.20
43009;DHT22;28634;45.454;11.106;2022-07-23T16:53:54;34.60;35.20
43009;DHT22;28634;45.454;11.106;2022-07-23T16:56:24;34.60;35.20
43009;DHT22;28634;45.454;11.106;2022-07-23T16:58:55;34.60;35.00
43009;DHT22;28634;45.454;11.106;2022-07-23T17:01:27;34.60;35.20
43009;DHT22;28634;45.454;11.106;2022-07-23T17:04:06;34.60;35.10
43009;DHT22;28634;45.454;11.106;2022-07-23T17:06:46;34.50;35.20
43009;DHT22;28634;45.454;11.106;2022-07-23T17:09:22;34.50;35.40
43009;DHT22;28634;45.454;11.106;2022-07-23T17:11:53;34.50;35.30
43009;DHT22;28634;45.454;11.106;2022-07-23T17:14:36;34.60;35.40
43009;DHT22;28634;45.454;11.106;2022-07-23T17:17:07;34.60;35.30
43009;DHT22;28634;45.454;11.106;2022-07-23T17:19:39;34.50;35.70
43009;DHT22;28634;45.454;11.106;2022-07-23T17:22:09;34.50;35.50
43009;DHT22;28634;45.454;11.106;2022-07-23T17:24:37;34.60;35.60
43009;DHT22;28634;45.454;11.106;2022-07-23T17:27:08;34.60;35.60
43009;DHT22;28634;45.454;11.106;2022-07-23T17:29:41;34.60;35.70
43009;DHT22;28634;45.454;11.106;2022-07-23T17:32:17;34.60;35.60
43009;DHT22;28634;45.454;11.106;2022-07-23T17:34:59;34.60;35.50
43009;DHT22;28634;45.454;11.106;2022-07-23T17:37:42;34.60;35.60
43009;DHT22;28634;45.454;11.106;2022-07-23T17:40:20;34.60;35.80
43009;DHT22;28634;45.454;11.106;2022-07-23T17:42:53;34.60;35.80
43009;DHT22;28634;45.454;11.106;2022-07-23T17:45:27;34.60;35.60
43009;DHT22;28634;45.454;11.106;2022-07-23T17:47:58;34.50;35.60
43009;DHT22;28634;45.454;11.106;2022-07-23T17:50:25;34.50;35.80
43009;DHT22;28634;45.454;11.106;2022-07-23T17:52:54;34.60;35.50
43009;DHT22;28634;45.454;11.106;2022-07-23T17:55:33;34.50;35.60
43009;DHT22;28634;45.454;11.106;2022-07-23T17:58:02;34.60;35.70
43009;DHT22;28634;45.454;11.106;2022-07-23T18:00:32;34.40;35.70
43009;DHT22;28634;45.454;11.106;2022-07-23T18:03:00;34.50;35.60
43009;DHT22;28634;45.454;11.106;2022-07-23T18:05:33;34.40;36.00
43009;DHT22;28634;45.454;11.106;2022-07-23T18:08:06;34.30;35.80
43009;DHT22;28634;45.454;11.106;2022-07-23T18:10:36;34.20;35.80
43009;DHT22;28634;45.454;11.106;2022-07-23T18:13:08;34.20;36.00
43009;DHT22;28634;45.454;11.106;2022-07-23T18:15:42;34.20;36.00
43009;DHT22;28634;45.454;11.106;2022-07-23T18:18:11;34.20;35.90
43009;DHT22;28634;45.454;11.106;2022-07-23T18:20:43;34.10;35.90
43009;DHT22;28634;45.454;11.106;2022-07-23T18:23:13;34.10;36.10
43009;DHT22;28634;45.454;11.106;2022-07-23T18:25:43;34.10;36.10
43009;DHT22;28634;45.454;11.106;2022-07-23T18:28:18;34.10;36.10
43009;DHT22;28634;45.454;11.106;2022-07-23T18:30:46;34.00;36.10
43009;DHT22;28634;45.454;11.106;2022-07-23T18:33:16;34.00;36.10
43009;DHT22;28634;45.454;11.106;2022-07-23T18:35:46;34.00;36.20
43009;DHT22;28634;45.454;11.106;2022-07-23T18:38:14;34.00;36.20
43009;DHT22;28634;45.454;11.106;2022-07-23T18:40:49;33.90;36.20
43009;DHT22;28634;45.454;11.106;2022-07-23T18:43:21;34.00;36.30
43009;DHT22;28634;45.454;11.106;2022-07-23T18:45:48;34.00;36.20
43009;DHT22;28634;45.454;11.106;2022-07-23T18:48:19;34.00;36.30
43009;DHT22;28634;45.454;11.106;2022-07-23T18:50:49;33.90;36.30
43009;DHT22;28634;45.454;11.106;2022-07-23T18:53:21;34.00;36.30
43009;DHT22;28634;45.454;11.106;2022-07-23T18:55:52;34.00;36.30
43009;DHT22;28634;45.454;11.106;2022-07-23T18:58:24;34.00;36.30
43009;DHT22;28634;45.454;11.106;2022-07-23T19:00:53;34.00;37.00
43009;DHT22;28634;45.454;11.106;2022-07-23T19:03:21;34.00;36.60
43009;DHT22;28634;45.454;11.106;2022-07-23T19:05:52;34.10;37.10
43009;DHT22;28634;45.454;11.106;2022-07-23T19:08:19;34.10;36.80
43009;DHT22;28634;45.454;11.106;2022-07-23T19:10:50;34.10;37.10
43009;DHT22;28634;45.454;11.106;2022-07-23T19:13:19;34.10;36.80
43009;DHT22;28634;45.454;11.106;2022-07-23T19:15:50;34.10;36.80
43009;DHT22;28634;45.454;11.106;2022-07-23T19:18:20;34.00;36.70
43009;DHT22;28634;45.454;11.106;2022-07-23T19:20:48;34.00;36.70
43009;DHT22;28634;45.454;11.106;2022-07-23T19:23:15;34.10;36.80
43009;DHT22;28634;45.454;11.106;2022-07-23T19:25:42;34.00;37.10
43009;DHT22;28634;45.454;11.106;2022-07-23T19:28:10;34.00;36.90
43009;DHT22;28634;45.454;11.106;2022-07-23T19:30:40;34.10;36.80
43009;DHT22;28634;45.454;11.106;2022-07-23T19:33:10;34.00;36.80
43009;DHT22;28634;45.454;11.106;2022-07-23T19:35:44;34.00;37.00
43009;DHT22;28634;45.454;11.106;2022-07-23T19:38:15;34.00;37.00
43009;DHT22;28634;45.454;11.106;2022-07-23T19:40:47;34.00;36.90
43009;DHT22;28634;45.454;11.106;2022-07-23T19:43:15;34.00;36.90
43009;DHT22;28634;45.454;11.106;2022-07-23T19:45:44;34.00;37.20
43009;DHT22;28634;45.454;11.106;2022-07-23T19:48:23;34.00;37.30
43009;DHT22;28634;45.454;11.106;2022-07-23T19:51:13;34.00;37.10
43009;DHT22;28634;45.454;11.106;2022-07-23T19:53:43;34.00;37.10
43009;DHT22;28634;45.454;11.106;2022-07-23T19:56:19;34.00;37.20
43009;DHT22;28634;45.454;11.106;2022-07-23T19:58:56;34.00;37.10
43009;DHT22;28634;45.454;11.106;2022-07-23T20:01:24;34.00;37.30
43009;DHT22;28634;45.454;11.106;2022-07-23T20:03:52;34.00;37.30
43009;DHT22;28634;45.454;11.106;2022-07-23T20:06:24;34.00;37.30
43009;DHT22;28634;45.454;11.106;2022-07-23T20:08:56;34.00;37.60
43009;DHT22;28634;45.454;11.106;2022-07-23T20:11:27;33.90;37.30
43009;DHT22;28634;45.454;11.106;2022-07-23T20:14:03;33.90;37.40
43009;DHT22;28634;45.454;11.106;2022-07-23T20:16:31;34.00;37.40
43009;DHT22;28634;45.454;11.106;2022-07-23T20:19:00;34.00;37.40
43009;DHT22;28634;45.454;11.106;2022-07-23T20:21:31;33.90;37.50
43009;DHT22;28634;45.454;11.106;2022-07-23T20:24:01;33.90;37.50
43009;DHT22;28634;45.454;11.106;2022-07-23T20:26:37;33.90;37.50
43009;DHT22;28634;45.454;11.106;2022-07-23T20:29:05;34.00;38.00
43009;DHT22;28634;45.454;11.106;2022-07-23T20:31:35;33.90;37.90
43009;DHT22;28634;45.454;11.106;2022-07-23T20:34:12;33.90;38.00
43009;DHT22;28634;45.454;11.106;2022-07-23T20:36:44;33.90;38.00
43009;DHT22;28634;45.454;11.106;2022-07-23T20:39:15;33.90;37.90
43009;DHT22;28634;45.454;11.106;2022-07-23T20:41:46;33.90;37.90
43009;DHT22;28634;45.454;11.106;2022-07-23T20:44:14;33.90;38.00
43009;DHT22;28634;45.454;11.106;2022-07-23T20:46:47;33.90;38.10
43009;DHT22;28634;45.454;11.106;2022-07-23T20:49:24;33.80;37.90
43009;DHT22;28634;45.454;11.106;2022-07-23T20:51:52;33.80;38.10
43009;DHT22;28634;45.454;11.106;2022-07-23T20:54:33;33.80;38.00
43009;DHT22;28634;45.454;11.106;2022-07-23T20:57:01;33.80;38.00
43009;DHT22;28634;45.454;11.106;2022-07-23T20:59:38;33.80;38.00
43009;DHT22;28634;45.454;11.106;2022-07-23T21:02:13;33.70;38.20
43009;DHT22;28634;45.454;11.106;2022-07-23T21:04:43;33.60;38.60
43009;DHT22;28634;45.454;11.106;2022-07-23T21:07:14;33.50;38.80
43009;DHT22;28634;45.454;11.106;2022-07-23T21:09:47;33.40;38.80
43009;DHT22;28634;45.454;11.106;2022-07-23T21:12:19;33.40;39.10
43009;DHT22;28634;45.454;11.106;2022-07-23T21:14:52;33.40;39.10
43009;DHT22;28634;45.454;11.106;2022-07-23T21:17:26;33.40;39.00
43009;DHT22;28634;45.454;11.106;2022-07-23T21:19:54;33.60;38.90
43009;DHT22;28634;45.454;11.106;2022-07-23T21:22:25;33.60;38.60
43009;DHT22;28634;45.454;11.106;2022-07-23T21:24:56;33.30;39.00
43009;DHT22;28634;45.454;11.106;2022-07-23T21:27:27;33.20;39.20
43009;DHT22;28634;45.454;11.106;2022-07-23T21:30:00;33.10;39.70
43009;DHT22;28634;45.454;11.106;2022-07-23T21:32:28;33.10;39.80
43009;DHT22;28634;45.454;11.106;2022-07-23T21:34:55;33.10;39.60
43009;DHT22;28634;45.454;11.106;2022-07-23T21:37:23;33.10;39.60
43009;DHT22;28634;45.454;11.106;2022-07-23T21:39:55;33.10;39.50
43009;DHT22;28634;45.454;11.106;2022-07-23T21:42:25;33.10;39.50
43009;DHT22;28634;45.454;11.106;2022-07-23T21:44:54;33.10;39.40
43009;DHT22;28634;45.454;11.106;2022-07-23T21:47:24;33.10;39.30
43009;DHT22;28634;45.454;11.106;2022-07-23T21:49:57;33.10;39.20
43009;DHT22;28634;45.454;11.106;2022-07-23T21:52:31;33.10;39.20
43009;DHT22;28634;45.454;11.106;2022-07-23T21:55:00;33.10;39.10
43009;DHT22;28634;45.454;11.106;2022-07-23T21:57:28;33.10;39.10
43009;DHT22;28634;45.454;11.106;2022-07-23T21:59:55;33.10;39.20
43009;DHT22;28634;45.454;11.106;2022-07-23T22:02:25;33.10;39.00
43009;DHT22;28634;45.454;11.106;2022-07-23T22:04:57;33.10;39.20
43009;DHT22;28634;45.454;11.106;2022-07-23T22:07:26;33.10;39.30
43009;DHT22;28634;45.454;11.106;2022-07-23T22:09:56;33.10;39.10
43009;DHT22;28634;45.454;11.106;2022-07-23T22:12:30;33.00;39.00
43009;DHT22;28634;45.454;11.106;2022-07-23T22:14:57;32.90;39.30
43009;DHT22;28634;45.454;11.106;2022-07-23T22:17:29;32.90;39.50
43009;DHT22;28634;45.454;11.106;2022-07-23T22:19:59;32.90;39.50
43009;DHT22;28634;45.454;11.106;2022-07-23T22:22:30;32.80;39.50
43009;DHT22;28634;45.454;11.106;2022-07-23T22:25:03;32.90;39.60
43009;DHT22;28634;45.454;11.106;2022-07-23T22:27:32;32.90;39.50
43009;DHT22;28634;45.454;11.106;2022-07-23T22:30:00;33.00;39.40
43009;DHT22;28634;45.454;11.106;2022-07-23T22:32:28;33.00;39.40
43009;DHT22;28634;45.454;11.106;2022-07-23T22:34:59;33.00;39.40
43009;DHT22;28634;45.454;11.106;2022-07-23T22:37:33;33.00;39.30
43009;DHT22;28634;45.454;11.106;2022-07-23T22:40:05;32.80;39.80
43009;DHT22;28634;45.454;11.106;2022-07-23T22:42:40;32.60;40.20
43009;DHT22;28634;45.454;11.106;2022-07-23T22:45:08;32.30;40.50
43009;DHT22;28634;45.454;11.106;2022-07-23T22:47:38;32.20;40.60
43009;DHT22;28634;45.454;11.106;2022-07-23T22:50:06;32.20;40.90
43009;DHT22;28634;45.454;11.106;2022-07-23T22:52:40;32.20;40.70
43009;DHT22;28634;45.454;11.106;2022-07-23T22:55:13;32.20;40.50
43009;DHT22;28634;45.454;11.106;2022-07-23T22:57:44;32.20;40.70
43009;DHT22;28634;45.454;11.106;2022-07-23T23:00:15;32.30;40.90
43009;DHT22;28634;45.454;11.106;2022-07-23T23:02:46;32.40;40.80
43009;DHT22;28634;45.454;11.106;2022-07-23T23:05:13;32.40;41.00
43009;DHT22;28634;45.454;11.106;2022-07-23T23:07:46;32.40;40.50
43009;DHT22;28634;45.454;11.106;2022-07-23T23:10:14;32.50;40.60
43009;DHT22;28634;45.454;11.106;2022-07-23T23:12:49;32.50;40.50
43009;DHT22;28634;45.454;11.106;2022-07-23T23:15:22;32.50;40.30
43009;DHT22;28634;45.454;11.106;2022-07-23T23:17:54;32.50;40.20
43009;DHT22;28634;45.454;11.106;2022-07-23T23:20:24;32.60;40.00
43009;DHT22;28634;45.454;11.106;2022-07-23T23:22:52;32.50;40.20
43009;DHT22;28634;45.454;11.106;2022-07-23T23:25:20;32.50;39.70
43009;DHT22;28634;45.454;11.106;2022-07-23T23:27:50;32.60;39.80
43009;DHT22;28634;45.454;11.106;2022-07-23T23:30:18;32.70;39.00
43009;DHT22;28634;45.454;11.106;2022-07-23T23:32:50;32.70;38.60
43009;DHT22;28634;45.454;11.106;2022-07-23T23:35:20;32.70;38.50
43009;DHT22;28634;45.454;11.106;2022-07-23T23:37:47;32.70;38.40
43009;DHT22;28634;45.454;11.106;2022-07-23T23:40:15;32.80;38.20
43009;DHT22;28634;45.454;11.106;2022-07-23T23:42:54;32.80;37.80
43009;DHT22;28634;45.454;11.106;2022-07-23T23:45:23;32.90;37.80
43009;DHT22;28634;45.454;11.106;2022-07-23T23:47:52;33.00;37.60
43009;DHT22;28634;45.454;11.106;2022-07-23T23:50:20;33.00;37.20
43009;DHT22;28634;45.454;11.106;2022-07-23T23:52:59;33.00;37.30
43009;DHT22;28634;45.454;11.106;2022-07-23T23:55:29;33.10;37.50
43009;DHT22;28634;45.454;11.106;2022-07-23T23:58:04;33.10;37.30
